sensor_id;sensor_type;location;lat;lon;timestamp;temperature;humidity
21928;DHT22;11128;51.096;17.190;2023-04-24T00:02:30;12.40;1.00
21928;DHT22;11128;51.096;17.190;2023-04-24T00:07:32;12.40;75.30
21928;DHT22;11128;51.096;17.190;2023-04-24T00:12:34;12.50;1.00
21928;DHT22;11128;51.096;17.190;2023-04-24T00:17:36;12.50;1.00
21928;DHT22;11128;51.096;17.190;2023-04-24T00:22:37;12.60;1.00
21928;DHT22;11128;51.096;17.190;2023-04-24T00:27:39;12.50;1.00
21928;DHT22;11128;51.096;17.190;2023-04-24T00:32:40;12.50;1.00
21928;DHT22;11128;51.096;17.190;2023-04-24T00:37:41;12.50;1.00
21928;DHT22;11128;51.096;17.190;2023-04-24T00:42:43;12.50;1.00
21928;DHT22;11128;51.096;17.190;2023-04-24T00:47:45;12.50;1.00
21928;DHT22;11128;51.096;17.190;2023-04-24T00:52:47;12.60;1.00
21928;DHT22;11128;51.096;17.190;2023-04-24T00:57:48;12.50;59.20
21928;DHT22;11128;51.096;17.190;2023-04-24T01:02:51;12.50;1.00
21928;DHT22;11128;51.096;17.190;2023-04-24T01:07:53;12.50;1.00
21928;DHT22;11128;51.096;17.190;2023-04-24T01:12:54;12.50;1.00
21928;DHT22;11128;51.096;17.190;2023-04-24T01:17:56;12.50;1.00
21928;DHT22;11128;51.096;17.190;2023-04-24T01:22:58;12.50;1.00
21928;DHT22;11128;51.096;17.190;2023-04-24T01:27:59;12.50;1.00
21928;DHT22;11128;51.096;17.190;2023-04-24T01:33:01;12.50;1.00
21928;DHT22;11128;51.096;17.190;2023-04-24T01:38:04;12.50;1.00
21928;DHT22;11128;51.096;17.190;2023-04-24T01:43:07;12.50;1.00
21928;DHT22;11128;51.096;17.190;2023-04-24T01:48:08;12.50;1.00
21928;DHT22;11128;51.096;17.190;2023-04-24T01:53:10;12.50;1.00
21928;DHT22;11128;51.096;17.190;2023-04-24T01:58:12;12.50;1.00
21928;DHT22;11128;51.096;17.190;2023-04-24T02:03:13;12.50;99.90
21928;DHT22;11128;51.096;17.190;2023-04-24T02:08:15;12.50;99.90
21928;DHT22;11128;51.096;17.190;2023-04-24T02:13:16;12.50;1.00
21928;DHT22;11128;51.096;17.190;2023-04-24T02:18:17;12.50;99.90
21928;DHT22;11128;51.096;17.190;2023-04-24T02:23:19;12.60;38.80
21928;DHT22;11128;51.096;17.190;2023-04-24T02:28:20;12.60;1.00
21928;DHT22;11128;51.096;17.190;2023-04-24T02:33:21;12.60;1.00
21928;DHT22;11128;51.096;17.190;2023-04-24T02:38:22;12.60;1.00
21928;DHT22;11128;51.096;17.190;2023-04-24T02:43:23;12.60;1.00
21928;DHT22;11128;51.096;17.190;2023-04-24T02:48:25;12.60;1.00
21928;DHT22;11128;51.096;17.190;2023-04-24T02:53:26;12.70;1.00
21928;DHT22;11128;51.096;17.190;2023-04-24T02:58:27;12.70;1.00
21928;DHT22;11128;51.096;17.190;2023-04-24T03:03:28;12.70;1.00
21928;DHT22;11128;51.096;17.190;2023-04-24T03:08:29;12.70;99.90
21928;DHT22;11128;51.096;17.190;2023-04-24T03:13:30;12.70;99.90
21928;DHT22;11128;51.096;17.190;2023-04-24T03:18:31;12.70;99.90
21928;DHT22;11128;51.096;17.190;2023-04-24T03:23:32;12.60;1.00
21928;DHT22;11128;51.096;17.190;2023-04-24T03:28:34;12.60;1.00
21928;DHT22;11128;51.096;17.190;2023-04-24T03:33:35;12.60;1.00
21928;DHT22;11128;51.096;17.190;2023-04-24T03:38:37;12.60;1.00
21928;DHT22;11128;51.096;17.190;2023-04-24T03:43:38;12.60;1.00
21928;DHT22;11128;51.096;17.190;2023-04-24T03:48:40;12.60;1.00
21928;DHT22;11128;51.096;17.190;2023-04-24T03:53:41;12.50;1.00
21928;DHT22;11128;51.096;17.190;2023-04-24T03:58:42;12.50;1.00
21928;DHT22;11128;51.096;17.190;2023-04-24T04:03:44;12.40;1.00
21928;DHT22;11128;51.096;17.190;2023-04-24T04:08:45;12.50;1.00
21928;DHT22;11128;51.096;17.190;2023-04-24T04:13:46;12.50;1.00
21928;DHT22;11128;51.096;17.190;2023-04-24T04:18:49;12.40;1.00
21928;DHT22;11128;51.096;17.190;2023-04-24T04:23:50;12.40;1.00
21928;DHT22;11128;51.096;17.190;2023-04-24T04:28:52;12.50;99.90
21928;DHT22;11128;51.096;17.190;2023-04-24T04:33:53;12.50;99.90
21928;DHT22;11128;51.096;17.190;2023-04-24T04:38:55;12.50;99.90
21928;DHT22;11128;51.096;17.190;2023-04-24T04:43:57;12.60;1.00
21928;DHT22;11128;51.096;17.190;2023-04-24T04:49:01;12.60;1.00
21928;DHT22;11128;51.096;17.190;2023-04-24T04:54:03;12.60;1.00
21928;DHT22;11128;51.096;17.190;2023-04-24T04:59:04;12.60;1.00
21928;DHT22;11128;51.096;17.190;2023-04-24T05:04:07;12.60;99.90
21928;DHT22;11128;51.096;17.190;2023-04-24T05:09:08;12.70;99.90
21928;DHT22;11128;51.096;17.190;2023-04-24T05:14:09;12.70;1.00
21928;DHT22;11128;51.096;17.190;2023-04-24T05:19:10;12.80;1.00
21928;DHT22;11128;51.096;17.190;2023-04-24T05:24:15;12.90;1.00
21928;DHT22;11128;51.096;17.190;2023-04-24T05:29:16;13.10;99.90
21928;DHT22;11128;51.096;17.190;2023-04-24T05:34:20;13.10;99.90
21928;DHT22;11128;51.096;17.190;2023-04-24T05:39:21;13.20;1.00
21928;DHT22;11128;51.096;17.190;2023-04-24T05:44:22;13.20;99.90
21928;DHT22;11128;51.096;17.190;2023-04-24T05:49:23;13.30;1.90
21928;DHT22;11128;51.096;17.190;2023-04-24T05:54:24;13.40;99.90
21928;DHT22;11128;51.096;17.190;2023-04-24T05:59:25;13.50;1.00
21928;DHT22;11128;51.096;17.190;2023-04-24T06:04:27;13.70;1.00
21928;DHT22;11128;51.096;17.190;2023-04-24T06:09:28;14.00;99.90
21928;DHT22;11128;51.096;17.190;2023-04-24T06:14:30;14.30;1.00
21928;DHT22;11128;51.096;17.190;2023-04-24T06:19:31;14.50;1.00
21928;DHT22;11128;51.096;17.190;2023-04-24T06:24:34;14.70;1.00
21928;DHT22;11128;51.096;17.190;2023-04-24T06:29:36;14.70;1.00
21928;DHT22;11128;51.096;17.190;2023-04-24T06:34:37;14.90;99.90
21928;DHT22;11128;51.096;17.190;2023-04-24T06:39:38;14.90;99.90
21928;DHT22;11128;51.096;17.190;2023-04-24T06:44:40;15.00;99.90
21928;DHT22;11128;51.096;17.190;2023-04-24T06:49:44;15.00;99.90
21928;DHT22;11128;51.096;17.190;2023-04-24T06:54:45;15.10;99.90
21928;DHT22;11128;51.096;17.190;2023-04-24T06:59:46;15.10;99.90
21928;DHT22;11128;51.096;17.190;2023-04-24T07:04:47;15.20;99.90
21928;DHT22;11128;51.096;17.190;2023-04-24T07:09:49;15.20;99.90
21928;DHT22;11128;51.096;17.190;2023-04-24T07:14:51;15.30;99.90
21928;DHT22;11128;51.096;17.190;2023-04-24T07:19:52;15.30;99.90
21928;DHT22;11128;51.096;17.190;2023-04-24T07:24:53;15.30;99.90
21928;DHT22;11128;51.096;17.190;2023-04-24T07:29:55;15.50;99.90
21928;DHT22;11128;51.096;17.190;2023-04-24T07:34:56;15.80;99.90
21928;DHT22;11128;51.096;17.190;2023-04-24T07:39:58;15.90;99.90
21928;DHT22;11128;51.096;17.190;2023-04-24T07:44:59;16.20;87.80
21928;DHT22;11128;51.096;17.190;2023-04-24T07:50:01;16.40;11.20
21928;DHT22;11128;51.096;17.190;2023-04-24T07:55:03;16.50;6.20
21928;DHT22;11128;51.096;17.190;2023-04-24T08:00:05;16.50;1.00
21928;DHT22;11128;51.096;17.190;2023-04-24T08:05:07;16.30;1.00
21928;DHT22;11128;51.096;17.190;2023-04-24T08:10:10;16.20;1.00
21928;DHT22;11128;51.096;17.190;2023-04-24T08:15:12;16.10;1.00
21928;DHT22;11128;51.096;17.190;2023-04-24T08:20:14;16.10;1.00
21928;DHT22;11128;51.096;17.190;2023-04-24T08:25:15;16.10;28.50
21928;DHT22;11128;51.096;17.190;2023-04-24T08:30:16;15.90;46.50
21928;DHT22;11128;51.096;17.190;2023-04-24T08:35:18;15.50;99.90
21928;DHT22;11128;51.096;17.190;2023-04-24T08:40:23;15.20;1.00
21928;DHT22;11128;51.096;17.190;2023-04-24T08:45:26;15.50;99.90
21928;DHT22;11128;51.096;17.190;2023-04-24T08:50:28;16.00;1.00
21928;DHT22;11128;51.096;17.190;2023-04-24T08:55:30;16.30;1.00
21928;DHT22;11128;51.096;17.190;2023-04-24T09:00:32;16.70;1.00
21928;DHT22;11128;51.096;17.190;2023-04-24T09:05:33;16.70;99.90
21928;DHT22;11128;51.096;17.190;2023-04-24T09:10:35;16.60;99.90
21928;DHT22;11128;51.096;17.190;2023-04-24T09:15:38;16.60;99.90
21928;DHT22;11128;51.096;17.190;2023-04-24T09:21:03;17.00;99.90
21928;DHT22;11128;51.096;17.190;2023-04-24T09:26:04;17.50;99.90
21928;DHT22;11128;51.096;17.190;2023-04-24T09:31:13;17.80;99.90
21928;DHT22;11128;51.096;17.190;2023-04-24T09:36:19;18.10;32.20
21928;DHT22;11128;51.096;17.190;2023-04-24T09:41:20;18.50;1.00
21928;DHT22;11128;51.096;17.190;2023-04-24T09:46:28;18.40;1.00
21928;DHT22;11128;51.096;17.190;2023-04-24T09:51:36;18.20;1.00
21928;DHT22;11128;51.096;17.190;2023-04-24T09:56:42;18.10;1.00
21928;DHT22;11128;51.096;17.190;2023-04-24T10:01:45;18.20;1.00
21928;DHT22;11128;51.096;17.190;2023-04-24T10:06:48;18.50;1.00
21928;DHT22;11128;51.096;17.190;2023-04-24T10:11:51;18.00;1.00
21928;DHT22;11128;51.096;17.190;2023-04-24T10:16:55;17.70;18.40
21928;DHT22;11128;51.096;17.190;2023-04-24T10:21:58;17.80;1.00
21928;DHT22;11128;51.096;17.190;2023-04-24T10:27:01;17.70;23.10
21928;DHT22;11128;51.096;17.190;2023-04-24T10:32:02;17.60;1.00
21928;DHT22;11128;51.096;17.190;2023-04-24T10:37:04;17.70;1.00
21928;DHT22;11128;51.096;17.190;2023-04-24T10:42:15;17.90;1.00
21928;DHT22;11128;51.096;17.190;2023-04-24T10:47:16;18.20;1.00
21928;DHT22;11128;51.096;17.190;2023-04-24T10:52:17;18.40;1.00
21928;DHT22;11128;51.096;17.190;2023-04-24T11:02:36;17.70;1.40
21928;DHT22;11128;51.096;17.190;2023-04-24T11:08:12;17.60;37.30
21928;DHT22;11128;51.096;17.190;2023-04-24T11:13:17;17.60;1.00
21928;DHT22;11128;51.096;17.190;2023-04-24T11:18:22;17.60;31.20
21928;DHT22;11128;51.096;17.190;2023-04-24T11:23:24;18.40;1.00
21928;DHT22;11128;51.096;17.190;2023-04-24T11:28:25;20.20;1.00
21928;DHT22;11128;51.096;17.190;2023-04-24T11:33:26;21.00;1.00
21928;DHT22;11128;51.096;17.190;2023-04-24T11:38:27;20.10;1.00
21928;DHT22;11128;51.096;17.190;2023-04-24T11:43:30;19.80;1.00
21928;DHT22;11128;51.096;17.190;2023-04-24T11:48:34;19.60;1.00
21928;DHT22;11128;51.096;17.190;2023-04-24T11:53:37;19.10;1.00
21928;DHT22;11128;51.096;17.190;2023-04-24T11:58:38;18.40;1.00
21928;DHT22;11128;51.096;17.190;2023-04-24T12:03:40;18.00;1.00
21928;DHT22;11128;51.096;17.190;2023-04-24T12:08:48;17.70;1.00
21928;DHT22;11128;51.096;17.190;2023-04-24T12:13:49;17.60;1.00
21928;DHT22;11128;51.096;17.190;2023-04-24T12:18:51;17.60;1.00
21928;DHT22;11128;51.096;17.190;2023-04-24T12:23:54;17.60;1.00
21928;DHT22;11128;51.096;17.190;2023-04-24T12:29:02;17.50;1.00
21928;DHT22;11128;51.096;17.190;2023-04-24T12:34:04;17.40;1.00
21928;DHT22;11128;51.096;17.190;2023-04-24T12:39:19;17.50;1.00
21928;DHT22;11128;51.096;17.190;2023-04-24T12:44:20;17.40;1.00
21928;DHT22;11128;51.096;17.190;2023-04-24T12:49:30;17.30;1.00
21928;DHT22;11128;51.096;17.190;2023-04-24T12:54:35;17.00;1.00
21928;DHT22;11128;51.096;17.190;2023-04-24T12:59:36;16.90;45.40
21928;DHT22;11128;51.096;17.190;2023-04-24T13:04:37;16.70;99.90
21928;DHT22;11128;51.096;17.190;2023-04-24T13:09:38;16.60;99.90
21928;DHT22;11128;51.096;17.190;2023-04-24T13:14:39;16.50;99.90
21928;DHT22;11128;51.096;17.190;2023-04-24T13:19:42;16.50;99.90
21928;DHT22;11128;51.096;17.190;2023-04-24T13:24:44;16.30;99.90
21928;DHT22;11128;51.096;17.190;2023-04-24T13:29:45;16.10;1.00
21928;DHT22;11128;51.096;17.190;2023-04-24T13:34:47;15.90;1.00
21928;DHT22;11128;51.096;17.190;2023-04-24T13:39:48;15.70;1.00
21928;DHT22;11128;51.096;17.190;2023-04-24T13:44:49;15.60;99.90
21928;DHT22;11128;51.096;17.190;2023-04-24T13:49:52;15.60;1.00
21928;DHT22;11128;51.096;17.190;2023-04-24T13:54:54;15.50;1.00
21928;DHT22;11128;51.096;17.190;2023-04-24T13:59:57;15.60;1.00
21928;DHT22;11128;51.096;17.190;2023-04-24T14:05:02;15.60;1.00
21928;DHT22;11128;51.096;17.190;2023-04-24T14:10:05;15.50;1.00
21928;DHT22;11128;51.096;17.190;2023-04-24T14:15:07;15.40;1.00
21928;DHT22;11128;51.096;17.190;2023-04-24T14:20:10;15.50;1.00
21928;DHT22;11128;51.096;17.190;2023-04-24T14:25:11;15.40;1.00
21928;DHT22;11128;51.096;17.190;2023-04-24T14:30:12;15.30;1.00
21928;DHT22;11128;51.096;17.190;2023-04-24T14:35:14;15.20;1.00
21928;DHT22;11128;51.096;17.190;2023-04-24T14:40:15;15.20;1.00
21928;DHT22;11128;51.096;17.190;2023-04-24T14:45:17;15.10;99.90
21928;DHT22;11128;51.096;17.190;2023-04-24T14:50:19;15.10;99.90
21928;DHT22;11128;51.096;17.190;2023-04-24T14:55:20;14.90;99.90
21928;DHT22;11128;51.096;17.190;2023-04-24T15:00:22;14.90;1.00
21928;DHT22;11128;51.096;17.190;2023-04-24T15:05:24;14.80;1.00
21928;DHT22;11128;51.096;17.190;2023-04-24T15:10:26;14.70;1.00
21928;DHT22;11128;51.096;17.190;2023-04-24T15:15:27;14.50;1.00
21928;DHT22;11128;51.096;17.190;2023-04-24T15:20:28;14.40;1.00
21928;DHT22;11128;51.096;17.190;2023-04-24T15:25:30;14.20;1.00
21928;DHT22;11128;51.096;17.190;2023-04-24T15:30:31;14.00;1.00
21928;DHT22;11128;51.096;17.190;2023-04-24T15:35:33;13.90;99.90
21928;DHT22;11128;51.096;17.190;2023-04-24T15:40:35;13.80;99.90
21928;DHT22;11128;51.096;17.190;2023-04-24T15:45:36;13.80;1.00
21928;DHT22;11128;51.096;17.190;2023-04-24T15:50:37;13.80;1.00
21928;DHT22;11128;51.096;17.190;2023-04-24T15:55:38;13.70;1.00
21928;DHT22;11128;51.096;17.190;2023-04-24T16:00:40;13.70;99.90
21928;DHT22;11128;51.096;17.190;2023-04-24T16:05:41;13.60;1.00
21928;DHT22;11128;51.096;17.190;2023-04-24T16:10:42;13.60;99.90
21928;DHT22;11128;51.096;17.190;2023-04-24T16:15:46;13.50;1.00
21928;DHT22;11128;51.096;17.190;2023-04-24T16:20:48;13.40;99.90
21928;DHT22;11128;51.096;17.190;2023-04-24T16:25:49;13.40;1.00
21928;DHT22;11128;51.096;17.190;2023-04-24T16:30:50;13.30;1.00
21928;DHT22;11128;51.096;17.190;2023-04-24T16:35:52;13.40;1.00
21928;DHT22;11128;51.096;17.190;2023-04-24T16:40:53;13.20;99.90
21928;DHT22;11128;51.096;17.190;2023-04-24T16:45:54;13.20;1.00
21928;DHT22;11128;51.096;17.190;2023-04-24T16:50:55;13.10;1.00
21928;DHT22;11128;51.096;17.190;2023-04-24T16:55:56;13.00;99.90
21928;DHT22;11128;51.096;17.190;2023-04-24T17:00:58;12.90;99.90
21928;DHT22;11128;51.096;17.190;2023-04-24T17:05:59;12.80;1.00
21928;DHT22;11128;51.096;17.190;2023-04-24T17:11:01;12.90;1.00
21928;DHT22;11128;51.096;17.190;2023-04-24T17:16:02;12.80;1.00
21928;DHT22;11128;51.096;17.190;2023-04-24T17:21:04;12.80;99.90
21928;DHT22;11128;51.096;17.190;2023-04-24T17:26:05;12.80;1.00
21928;DHT22;11128;51.096;17.190;2023-04-24T17:31:06;12.70;99.90
21928;DHT22;11128;51.096;17.190;2023-04-24T17:36:07;12.70;1.00
21928;DHT22;11128;51.096;17.190;2023-04-24T17:41:12;12.60;99.90
21928;DHT22;11128;51.096;17.190;2023-04-24T17:46:16;12.60;1.00
21928;DHT22;11128;51.096;17.190;2023-04-24T17:51:17;12.50;1.00
21928;DHT22;11128;51.096;17.190;2023-04-24T17:56:19;12.50;26.60
21928;DHT22;11128;51.096;17.190;2023-04-24T18:01:20;12.50;1.00
21928;DHT22;11128;51.096;17.190;2023-04-24T18:06:22;12.50;1.00
21928;DHT22;11128;51.096;17.190;2023-04-24T18:11:23;12.40;99.90
21928;DHT22;11128;51.096;17.190;2023-04-24T18:16:25;12.40;99.90
21928;DHT22;11128;51.096;17.190;2023-04-24T18:21:26;12.20;99.90
21928;DHT22;11128;51.096;17.190;2023-04-24T18:26:28;12.20;99.90
21928;DHT22;11128;51.096;17.190;2023-04-24T18:31:29;12.20;1.00
21928;DHT22;11128;51.096;17.190;2023-04-24T18:36:32;12.20;1.00
21928;DHT22;11128;51.096;17.190;2023-04-24T18:41:33;12.10;1.00
21928;DHT22;11128;51.096;17.190;2023-04-24T18:46:35;12.20;99.90
21928;DHT22;11128;51.096;17.190;2023-04-24T18:51:41;12.10;1.00
21928;DHT22;11128;51.096;17.190;2023-04-24T18:56:42;12.20;99.90
21928;DHT22;11128;51.096;17.190;2023-04-24T19:01:43;12.20;1.00
21928;DHT22;11128;51.096;17.190;2023-04-24T19:06:45;12.20;1.00
21928;DHT22;11128;51.096;17.190;2023-04-24T19:11:46;12.10;1.00
21928;DHT22;11128;51.096;17.190;2023-04-24T19:16:48;12.10;1.00
21928;DHT22;11128;51.096;17.190;2023-04-24T19:21:49;12.10;1.00
21928;DHT22;11128;51.096;17.190;2023-04-24T19:26:50;12.10;1.00
21928;DHT22;11128;51.096;17.190;2023-04-24T19:31:51;12.10;1.00
21928;DHT22;11128;51.096;17.190;2023-04-24T19:36:54;12.00;1.00
21928;DHT22;11128;51.096;17.190;2023-04-24T19:41:55;11.90;1.00
21928;DHT22;11128;51.096;17.190;2023-04-24T19:46:57;11.80;99.90
21928;DHT22;11128;51.096;17.190;2023-04-24T19:51:58;11.70;99.90
21928;DHT22;11128;51.096;17.190;2023-04-24T19:56:59;11.70;99.90
21928;DHT22;11128;51.096;17.190;2023-04-24T20:02:00;11.70;99.90
21928;DHT22;11128;51.096;17.190;2023-04-24T20:07:01;11.70;99.90
21928;DHT22;11128;51.096;17.190;2023-04-24T20:12:03;11.70;39.50
21928;DHT22;11128;51.096;17.190;2023-04-24T20:17:04;11.60;48.20
21928;DHT22;11128;51.096;17.190;2023-04-24T20:22:06;11.60;27.70
21928;DHT22;11128;51.096;17.190;2023-04-24T20:27:08;11.60;1.00
21928;DHT22;11128;51.096;17.190;2023-04-24T20:32:09;11.60;1.00
21928;DHT22;11128;51.096;17.190;2023-04-24T20:37:10;11.60;1.00
21928;DHT22;11128;51.096;17.190;2023-04-24T20:42:11;11.40;1.00
21928;DHT22;11128;51.096;17.190;2023-04-24T20:47:13;11.40;99.90
21928;DHT22;11128;51.096;17.190;2023-04-24T20:52:15;11.30;99.90
21928;DHT22;11128;51.096;17.190;2023-04-24T20:57:16;11.30;99.90
21928;DHT22;11128;51.096;17.190;2023-04-24T21:02:17;11.30;1.00
21928;DHT22;11128;51.096;17.190;2023-04-24T21:07:19;11.20;1.00
21928;DHT22;11128;51.096;17.190;2023-04-24T21:12:20;11.20;1.00
21928;DHT22;11128;51.096;17.190;2023-04-24T21:17:21;11.20;1.00
21928;DHT22;11128;51.096;17.190;2023-04-24T21:22:22;11.10;1.00
21928;DHT22;11128;51.096;17.190;2023-04-24T21:27:23;11.10;1.00
21928;DHT22;11128;51.096;17.190;2023-04-24T21:32:25;11.10;1.00
21928;DHT22;11128;51.096;17.190;2023-04-24T21:37:26;11.20;99.90
21928;DHT22;11128;51.096;17.190;2023-04-24T21:42:28;11.30;99.90
21928;DHT22;11128;51.096;17.190;2023-04-24T21:47:29;11.30;1.00
21928;DHT22;11128;51.096;17.190;2023-04-24T21:52:30;11.30;99.90
21928;DHT22;11128;51.096;17.190;2023-04-24T21:57:32;11.40;1.00
21928;DHT22;11128;51.096;17.190;2023-04-24T22:02:34;11.40;1.00
21928;DHT22;11128;51.096;17.190;2023-04-24T22:07:35;11.40;99.90
21928;DHT22;11128;51.096;17.190;2023-04-24T22:12:37;11.30;8.60
21928;DHT22;11128;51.096;17.190;2023-04-24T22:17:38;11.30;1.00
21928;DHT22;11128;51.096;17.190;2023-04-24T22:22:40;11.20;99.90
21928;DHT22;11128;51.096;17.190;2023-04-24T22:27:41;11.20;99.90
21928;DHT22;11128;51.096;17.190;2023-04-24T22:32:42;11.20;38.10
21928;DHT22;11128;51.096;17.190;2023-04-24T22:37:44;11.20;1.00
21928;DHT22;11128;51.096;17.190;2023-04-24T22:42:45;11.10;99.90
21928;DHT22;11128;51.096;17.190;2023-04-24T22:47:47;11.00;99.90
21928;DHT22;11128;51.096;17.190;2023-04-24T22:52:48;10.90;99.90
21928;DHT22;11128;51.096;17.190;2023-04-24T22:57:49;10.80;1.00
21928;DHT22;11128;51.096;17.190;2023-04-24T23:02:51;10.80;1.00
21928;DHT22;11128;51.096;17.190;2023-04-24T23:07:53;10.70;1.00
21928;DHT22;11128;51.096;17.190;2023-04-24T23:12:54;10.60;1.00
21928;DHT22;11128;51.096;17.190;2023-04-24T23:17:55;10.50;1.00
21928;DHT22;11128;51.096;17.190;2023-04-24T23:22:56;10.40;1.00
21928;DHT22;11128;51.096;17.190;2023-04-24T23:27:58;10.30;1.00
21928;DHT22;11128;51.096;17.190;2023-04-24T23:32:59;10.20;1.00
21928;DHT22;11128;51.096;17.190;2023-04-24T23:38:00;10.20;1.00
21928;DHT22;11128;51.096;17.190;2023-04-24T23:43:02;10.10;1.00
21928;DHT22;11128;51.096;17.190;2023-04-24T23:48:03;10.00;1.00
21928;DHT22;11128;51.096;17.190;2023-04-24T23:53:04;10.10;1.00
21928;DHT22;11128;51.096;17.190;2023-04-24T23:58:06;10.00;1.00
